sensor_id;sensor_type;location;lat;lon;timestamp;P1;durP1;ratioP1;P2;durP2;ratioP2
72413;SDS011;60995;52.154;4.498;2023-04-15T00:01:01;12.05;;;4.57;;
72413;SDS011;60995;52.154;4.498;2023-04-15T00:03:20;13.13;;;4.78;;
72413;SDS011;60995;52.154;4.498;2023-04-15T00:05:37;12.85;;;4.80;;
72413;SDS011;60995;52.154;4.498;2023-04-15T00:07:53;12.40;;;4.55;;
72413;SDS011;60995;52.154;4.498;2023-04-15T00:10:10;12.18;;;4.90;;
72413;SDS011;60995;52.154;4.498;2023-04-15T00:12:26;14.98;;;4.63;;
72413;SDS011;60995;52.154;4.498;2023-04-15T00:14:43;12.23;;;5.30;;
72413;SDS011;60995;52.154;4.498;2023-04-15T00:16:59;14.10;;;5.25;;
72413;SDS011;60995;52.154;4.498;2023-04-15T00:19:16;11.48;;;4.55;;
72413;SDS011;60995;52.154;4.498;2023-04-15T00:21:32;15.57;;;5.18;;
72413;SDS011;60995;52.154;4.498;2023-04-15T00:23:48;14.20;;;4.78;;
72413;SDS011;60995;52.154;4.498;2023-04-15T00:26:07;11.80;;;5.20;;
72413;SDS011;60995;52.154;4.498;2023-04-15T00:28:24;13.05;;;5.28;;
72413;SDS011;60995;52.154;4.498;2023-04-15T00:30:40;15.15;;;5.10;;
72413;SDS011;60995;52.154;4.498;2023-04-15T00:32:57;10.57;;;4.95;;
72413;SDS011;60995;52.154;4.498;2023-04-15T00:35:14;16.02;;;6.20;;
72413;SDS011;60995;52.154;4.498;2023-04-15T00:37:30;13.82;;;5.00;;
72413;SDS011;60995;52.154;4.498;2023-04-15T00:39:46;12.32;;;5.40;;
72413;SDS011;60995;52.154;4.498;2023-04-15T00:42:03;13.55;;;5.32;;
72413;SDS011;60995;52.154;4.498;2023-04-15T00:44:20;14.23;;;5.50;;
72413;SDS011;60995;52.154;4.498;2023-04-15T00:46:37;17.90;;;5.47;;
72413;SDS011;60995;52.154;4.498;2023-04-15T00:48:55;12.10;;;5.70;;
72413;SDS011;60995;52.154;4.498;2023-04-15T00:51:12;17.02;;;5.78;;
72413;SDS011;60995;52.154;4.498;2023-04-15T00:53:29;13.57;;;5.63;;
72413;SDS011;60995;52.154;4.498;2023-04-15T00:55:45;10.15;;;4.93;;
72413;SDS011;60995;52.154;4.498;2023-04-15T00:58:02;12.65;;;5.30;;
72413;SDS011;60995;52.154;4.498;2023-04-15T01:00:18;10.63;;;4.88;;
72413;SDS011;60995;52.154;4.498;2023-04-15T01:02:35;15.00;;;5.50;;
72413;SDS011;60995;52.154;4.498;2023-04-15T01:04:52;12.82;;;5.45;;
72413;SDS011;60995;52.154;4.498;2023-04-15T01:07:08;13.52;;;5.15;;
72413;SDS011;60995;52.154;4.498;2023-04-15T01:09:24;13.93;;;5.63;;
72413;SDS011;60995;52.154;4.498;2023-04-15T01:11:41;15.35;;;5.97;;
72413;SDS011;60995;52.154;4.498;2023-04-15T01:13:59;12.68;;;5.63;;
72413;SDS011;60995;52.154;4.498;2023-04-15T01:16:16;10.75;;;5.80;;
72413;SDS011;60995;52.154;4.498;2023-04-15T01:18:35;14.50;;;5.75;;
72413;SDS011;60995;52.154;4.498;2023-04-15T01:20:52;11.52;;;5.40;;
72413;SDS011;60995;52.154;4.498;2023-04-15T01:23:08;19.48;;;5.93;;
72413;SDS011;60995;52.154;4.498;2023-04-15T01:25:31;11.90;;;5.90;;
72413;SDS011;60995;52.154;4.498;2023-04-15T01:27:49;15.55;;;6.05;;
72413;SDS011;60995;52.154;4.498;2023-04-15T01:30:06;12.77;;;5.78;;
72413;SDS011;60995;52.154;4.498;2023-04-15T01:32:25;13.50;;;5.70;;
72413;SDS011;60995;52.154;4.498;2023-04-15T01:34:41;13.60;;;6.05;;
72413;SDS011;60995;52.154;4.498;2023-04-15T01:36:58;17.33;;;6.28;;
72413;SDS011;60995;52.154;4.498;2023-04-15T01:39:14;12.98;;;6.10;;
72413;SDS011;60995;52.154;4.498;2023-04-15T01:41:30;16.02;;;6.32;;
72413;SDS011;60995;52.154;4.498;2023-04-15T01:43:47;14.77;;;6.65;;
72413;SDS011;60995;52.154;4.498;2023-04-15T01:46:03;12.70;;;6.13;;
72413;SDS011;60995;52.154;4.498;2023-04-15T01:48:21;13.93;;;6.15;;
72413;SDS011;60995;52.154;4.498;2023-04-15T01:50:38;12.73;;;6.53;;
72413;SDS011;60995;52.154;4.498;2023-04-15T01:52:54;14.70;;;5.85;;
72413;SDS011;60995;52.154;4.498;2023-04-15T01:55:10;13.07;;;6.03;;
72413;SDS011;60995;52.154;4.498;2023-04-15T01:57:27;15.20;;;5.75;;
72413;SDS011;60995;52.154;4.498;2023-04-15T01:59:43;12.27;;;6.28;;
72413;SDS011;60995;52.154;4.498;2023-04-15T02:01:59;15.15;;;6.53;;
72413;SDS011;60995;52.154;4.498;2023-04-15T02:04:16;11.73;;;5.82;;
72413;SDS011;60995;52.154;4.498;2023-04-15T02:06:32;14.98;;;6.45;;
72413;SDS011;60995;52.154;4.498;2023-04-15T02:08:49;14.25;;;6.68;;
72413;SDS011;60995;52.154;4.498;2023-04-15T02:11:05;14.30;;;6.13;;
72413;SDS011;60995;52.154;4.498;2023-04-15T02:13:21;12.52;;;6.45;;
72413;SDS011;60995;52.154;4.498;2023-04-15T02:15:37;14.20;;;6.38;;
72413;SDS011;60995;52.154;4.498;2023-04-15T02:17:54;12.23;;;6.13;;
72413;SDS011;60995;52.154;4.498;2023-04-15T02:20:10;11.93;;;6.35;;
72413;SDS011;60995;52.154;4.498;2023-04-15T02:22:27;12.27;;;6.25;;
72413;SDS011;60995;52.154;4.498;2023-04-15T02:24:44;16.98;;;6.47;;
72413;SDS011;60995;52.154;4.498;2023-04-15T02:27:01;17.92;;;7.40;;
72413;SDS011;60995;52.154;4.498;2023-04-15T02:29:18;14.18;;;6.32;;
72413;SDS011;60995;52.154;4.498;2023-04-15T02:31:34;12.38;;;6.35;;
72413;SDS011;60995;52.154;4.498;2023-04-15T02:33:54;14.02;;;6.75;;
72413;SDS011;60995;52.154;4.498;2023-04-15T02:36:11;13.38;;;7.03;;
72413;SDS011;60995;52.154;4.498;2023-04-15T02:38:27;14.45;;;6.82;;
72413;SDS011;60995;52.154;4.498;2023-04-15T02:40:43;15.52;;;6.65;;
72413;SDS011;60995;52.154;4.498;2023-04-15T02:43:00;13.70;;;6.95;;
72413;SDS011;60995;52.154;4.498;2023-04-15T02:45:17;14.15;;;6.85;;
72413;SDS011;60995;52.154;4.498;2023-04-15T02:47:35;15.20;;;7.13;;
72413;SDS011;60995;52.154;4.498;2023-04-15T02:49:52;15.35;;;7.47;;
72413;SDS011;60995;52.154;4.498;2023-04-15T02:52:08;20.35;;;7.47;;
72413;SDS011;60995;52.154;4.498;2023-04-15T02:54:24;13.00;;;7.13;;
72413;SDS011;60995;52.154;4.498;2023-04-15T02:56:43;13.10;;;6.88;;
72413;SDS011;60995;52.154;4.498;2023-04-15T02:58:59;14.55;;;6.95;;
72413;SDS011;60995;52.154;4.498;2023-04-15T03:01:16;14.18;;;7.55;;
72413;SDS011;60995;52.154;4.498;2023-04-15T03:03:32;15.50;;;7.07;;
72413;SDS011;60995;52.154;4.498;2023-04-15T03:05:49;16.15;;;7.00;;
72413;SDS011;60995;52.154;4.498;2023-04-15T03:08:05;16.15;;;7.57;;
72413;SDS011;60995;52.154;4.498;2023-04-15T03:10:22;13.15;;;7.50;;
72413;SDS011;60995;52.154;4.498;2023-04-15T03:12:38;15.40;;;7.60;;
72413;SDS011;60995;52.154;4.498;2023-04-15T03:14:55;16.42;;;6.57;;
72413;SDS011;60995;52.154;4.498;2023-04-15T03:17:11;12.95;;;6.80;;
72413;SDS011;60995;52.154;4.498;2023-04-15T03:19:27;13.20;;;6.70;;
72413;SDS011;60995;52.154;4.498;2023-04-15T03:21:44;17.08;;;7.72;;
72413;SDS011;60995;52.154;4.498;2023-04-15T03:24:00;15.57;;;7.55;;
72413;SDS011;60995;52.154;4.498;2023-04-15T03:26:24;13.18;;;6.60;;
72413;SDS011;60995;52.154;4.498;2023-04-15T03:28:45;12.65;;;7.00;;
72413;SDS011;60995;52.154;4.498;2023-04-15T03:31:01;16.05;;;7.07;;
72413;SDS011;60995;52.154;4.498;2023-04-15T03:33:18;14.13;;;7.20;;
72413;SDS011;60995;52.154;4.498;2023-04-15T03:35:34;15.27;;;7.20;;
72413;SDS011;60995;52.154;4.498;2023-04-15T03:37:50;13.75;;;6.50;;
72413;SDS011;60995;52.154;4.498;2023-04-15T03:40:07;17.05;;;7.10;;
72413;SDS011;60995;52.154;4.498;2023-04-15T03:42:24;16.35;;;7.05;;
72413;SDS011;60995;52.154;4.498;2023-04-15T03:44:40;14.75;;;7.95;;
72413;SDS011;60995;52.154;4.498;2023-04-15T03:46:57;14.10;;;6.88;;
72413;SDS011;60995;52.154;4.498;2023-04-15T03:49:13;12.73;;;7.07;;
72413;SDS011;60995;52.154;4.498;2023-04-15T03:51:29;14.25;;;7.82;;
72413;SDS011;60995;52.154;4.498;2023-04-15T03:53:46;13.02;;;7.72;;
72413;SDS011;60995;52.154;4.498;2023-04-15T03:56:02;14.93;;;7.65;;
72413;SDS011;60995;52.154;4.498;2023-04-15T03:58:18;14.68;;;7.93;;
72413;SDS011;60995;52.154;4.498;2023-04-15T04:00:35;15.40;;;7.20;;
72413;SDS011;60995;52.154;4.498;2023-04-15T04:02:51;16.95;;;7.03;;
72413;SDS011;60995;52.154;4.498;2023-04-15T04:05:08;11.05;;;7.07;;
72413;SDS011;60995;52.154;4.498;2023-04-15T04:07:24;15.07;;;7.43;;
72413;SDS011;60995;52.154;4.498;2023-04-15T04:09:41;14.15;;;7.18;;
72413;SDS011;60995;52.154;4.498;2023-04-15T04:11:57;20.92;;;8.70;;
72413;SDS011;60995;52.154;4.498;2023-04-15T04:14:13;14.88;;;6.55;;
72413;SDS011;60995;52.154;4.498;2023-04-15T04:16:29;12.10;;;6.68;;
72413;SDS011;60995;52.154;4.498;2023-04-15T04:18:46;15.45;;;7.70;;
72413;SDS011;60995;52.154;4.498;2023-04-15T04:21:02;15.65;;;7.72;;
72413;SDS011;60995;52.154;4.498;2023-04-15T04:23:18;14.10;;;7.22;;
72413;SDS011;60995;52.154;4.498;2023-04-15T04:25:35;13.73;;;7.55;;
72413;SDS011;60995;52.154;4.498;2023-04-15T04:27:51;14.95;;;7.85;;
72413;SDS011;60995;52.154;4.498;2023-04-15T04:30:07;15.00;;;7.95;;
72413;SDS011;60995;52.154;4.498;2023-04-15T04:32:24;13.70;;;7.72;;
72413;SDS011;60995;52.154;4.498;2023-04-15T04:34:40;13.82;;;7.43;;
72413;SDS011;60995;52.154;4.498;2023-04-15T04:36:57;13.85;;;7.90;;
72413;SDS011;60995;52.154;4.498;2023-04-15T04:39:13;14.85;;;7.90;;
72413;SDS011;60995;52.154;4.498;2023-04-15T04:41:29;14.32;;;8.18;;
72413;SDS011;60995;52.154;4.498;2023-04-15T04:43:46;16.52;;;8.23;;
72413;SDS011;60995;52.154;4.498;2023-04-15T04:46:03;16.23;;;8.20;;
72413;SDS011;60995;52.154;4.498;2023-04-15T04:48:19;17.38;;;7.95;;
72413;SDS011;60995;52.154;4.498;2023-04-15T04:50:36;13.80;;;7.80;;
72413;SDS011;60995;52.154;4.498;2023-04-15T04:52:52;16.17;;;9.23;;
72413;SDS011;60995;52.154;4.498;2023-04-15T04:55:08;15.32;;;8.82;;
72413;SDS011;60995;52.154;4.498;2023-04-15T04:57:24;17.42;;;8.73;;
72413;SDS011;60995;52.154;4.498;2023-04-15T04:59:41;15.32;;;8.77;;
72413;SDS011;60995;52.154;4.498;2023-04-15T05:01:57;16.25;;;8.50;;
72413;SDS011;60995;52.154;4.498;2023-04-15T05:04:13;16.50;;;8.90;;
72413;SDS011;60995;52.154;4.498;2023-04-15T05:06:30;14.25;;;8.48;;
72413;SDS011;60995;52.154;4.498;2023-04-15T05:08:47;16.40;;;8.90;;
72413;SDS011;60995;52.154;4.498;2023-04-15T05:11:03;17.27;;;8.50;;
72413;SDS011;60995;52.154;4.498;2023-04-15T05:13:20;17.17;;;8.90;;
72413;SDS011;60995;52.154;4.498;2023-04-15T05:15:36;16.80;;;8.63;;
72413;SDS011;60995;52.154;4.498;2023-04-15T05:17:54;14.68;;;8.95;;
72413;SDS011;60995;52.154;4.498;2023-04-15T05:20:10;15.30;;;9.00;;
72413;SDS011;60995;52.154;4.498;2023-04-15T05:22:27;15.15;;;8.63;;
72413;SDS011;60995;52.154;4.498;2023-04-15T05:24:44;17.92;;;9.13;;
72413;SDS011;60995;52.154;4.498;2023-04-15T05:27:00;15.02;;;8.63;;
72413;SDS011;60995;52.154;4.498;2023-04-15T05:29:16;16.25;;;9.25;;
72413;SDS011;60995;52.154;4.498;2023-04-15T05:31:33;17.35;;;9.00;;
72413;SDS011;60995;52.154;4.498;2023-04-15T05:33:49;15.52;;;8.82;;
72413;SDS011;60995;52.154;4.498;2023-04-15T05:36:05;12.45;;;7.50;;
72413;SDS011;60995;52.154;4.498;2023-04-15T05:38:22;15.82;;;8.88;;
72413;SDS011;60995;52.154;4.498;2023-04-15T05:40:38;13.93;;;8.75;;
72413;SDS011;60995;52.154;4.498;2023-04-15T05:42:54;16.45;;;8.60;;
72413;SDS011;60995;52.154;4.498;2023-04-15T05:45:11;17.63;;;9.60;;
72413;SDS011;60995;52.154;4.498;2023-04-15T05:47:28;15.23;;;8.93;;
72413;SDS011;60995;52.154;4.498;2023-04-15T05:49:44;17.30;;;9.07;;
72413;SDS011;60995;52.154;4.498;2023-04-15T05:52:01;15.07;;;8.68;;
72413;SDS011;60995;52.154;4.498;2023-04-15T05:54:17;14.50;;;9.38;;
72413;SDS011;60995;52.154;4.498;2023-04-15T05:56:33;17.90;;;8.82;;
72413;SDS011;60995;52.154;4.498;2023-04-15T05:58:50;16.90;;;8.50;;
72413;SDS011;60995;52.154;4.498;2023-04-15T06:01:06;17.75;;;9.38;;
72413;SDS011;60995;52.154;4.498;2023-04-15T06:03:23;16.70;;;8.57;;
72413;SDS011;60995;52.154;4.498;2023-04-15T06:05:40;14.02;;;7.95;;
72413;SDS011;60995;52.154;4.498;2023-04-15T06:07:56;12.18;;;7.50;;
72413;SDS011;60995;52.154;4.498;2023-04-15T06:10:12;14.07;;;8.23;;
72413;SDS011;60995;52.154;4.498;2023-04-15T06:12:28;14.38;;;7.10;;
72413;SDS011;60995;52.154;4.498;2023-04-15T06:14:45;15.90;;;7.57;;
72413;SDS011;60995;52.154;4.498;2023-04-15T06:17:01;11.68;;;7.25;;
72413;SDS011;60995;52.154;4.498;2023-04-15T06:19:17;12.70;;;7.20;;
72413;SDS011;60995;52.154;4.498;2023-04-15T06:21:34;12.43;;;7.13;;
72413;SDS011;60995;52.154;4.498;2023-04-15T06:23:51;14.23;;;8.20;;
72413;SDS011;60995;52.154;4.498;2023-04-15T06:26:07;10.43;;;6.75;;
72413;SDS011;60995;52.154;4.498;2023-04-15T06:28:24;13.38;;;7.32;;
72413;SDS011;60995;52.154;4.498;2023-04-15T06:30:40;10.95;;;6.43;;
72413;SDS011;60995;52.154;4.498;2023-04-15T06:32:57;12.25;;;6.72;;
72413;SDS011;60995;52.154;4.498;2023-04-15T06:35:13;11.48;;;7.07;;
72413;SDS011;60995;52.154;4.498;2023-04-15T06:37:30;10.45;;;6.55;;
72413;SDS011;60995;52.154;4.498;2023-04-15T06:39:47;10.85;;;6.63;;
72413;SDS011;60995;52.154;4.498;2023-04-15T06:42:03;10.35;;;6.68;;
72413;SDS011;60995;52.154;4.498;2023-04-15T06:44:19;11.02;;;6.55;;
72413;SDS011;60995;52.154;4.498;2023-04-15T06:46:36;14.63;;;7.18;;
72413;SDS011;60995;52.154;4.498;2023-04-15T06:48:52;9.98;;;6.22;;
72413;SDS011;60995;52.154;4.498;2023-04-15T06:51:08;10.98;;;6.22;;
72413;SDS011;60995;52.154;4.498;2023-04-15T06:53:25;11.55;;;6.40;;
72413;SDS011;60995;52.154;4.498;2023-04-15T06:55:42;10.32;;;6.70;;
72413;SDS011;60995;52.154;4.498;2023-04-15T06:57:58;12.68;;;6.70;;
72413;SDS011;60995;52.154;4.498;2023-04-15T07:00:15;12.13;;;6.60;;
72413;SDS011;60995;52.154;4.498;2023-04-15T07:02:32;9.95;;;6.47;;
72413;SDS011;60995;52.154;4.498;2023-04-15T07:04:49;11.32;;;6.80;;
72413;SDS011;60995;52.154;4.498;2023-04-15T07:07:05;10.30;;;6.80;;
72413;SDS011;60995;52.154;4.498;2023-04-15T07:09:23;10.15;;;6.43;;
72413;SDS011;60995;52.154;4.498;2023-04-15T07:11:39;11.57;;;7.10;;
72413;SDS011;60995;52.154;4.498;2023-04-15T07:13:56;11.65;;;6.75;;
72413;SDS011;60995;52.154;4.498;2023-04-15T07:16:16;11.57;;;7.20;;
72413;SDS011;60995;52.154;4.498;2023-04-15T07:18:33;13.13;;;6.75;;
72413;SDS011;60995;52.154;4.498;2023-04-15T07:20:49;11.57;;;6.50;;
72413;SDS011;60995;52.154;4.498;2023-04-15T07:23:06;12.20;;;6.82;;
72413;SDS011;60995;52.154;4.498;2023-04-15T07:25:22;11.45;;;6.15;;
72413;SDS011;60995;52.154;4.498;2023-04-15T07:27:39;11.80;;;7.25;;
72413;SDS011;60995;52.154;4.498;2023-04-15T07:29:55;9.85;;;6.25;;
72413;SDS011;60995;52.154;4.498;2023-04-15T07:32:12;10.50;;;6.75;;
72413;SDS011;60995;52.154;4.498;2023-04-15T07:34:28;10.50;;;6.72;;
72413;SDS011;60995;52.154;4.498;2023-04-15T07:36:44;9.70;;;6.65;;
72413;SDS011;60995;52.154;4.498;2023-04-15T07:39:01;10.85;;;7.05;;
72413;SDS011;60995;52.154;4.498;2023-04-15T07:41:18;12.15;;;6.47;;
72413;SDS011;60995;52.154;4.498;2023-04-15T07:43:35;11.98;;;6.28;;
72413;SDS011;60995;52.154;4.498;2023-04-15T07:45:51;9.50;;;6.45;;
72413;SDS011;60995;52.154;4.498;2023-04-15T07:48:08;10.85;;;6.95;;
72413;SDS011;60995;52.154;4.498;2023-04-15T07:50:24;8.95;;;5.68;;
72413;SDS011;60995;52.154;4.498;2023-04-15T07:52:41;9.27;;;5.50;;
72413;SDS011;60995;52.154;4.498;2023-04-15T07:54:57;13.68;;;6.53;;
72413;SDS011;60995;52.154;4.498;2023-04-15T07:57:14;12.32;;;7.20;;
72413;SDS011;60995;52.154;4.498;2023-04-15T07:59:31;10.50;;;7.13;;
72413;SDS011;60995;52.154;4.498;2023-04-15T08:01:48;11.65;;;6.55;;
72413;SDS011;60995;52.154;4.498;2023-04-15T08:04:04;10.65;;;6.93;;
72413;SDS011;60995;52.154;4.498;2023-04-15T08:06:21;11.07;;;6.90;;
72413;SDS011;60995;52.154;4.498;2023-04-15T08:08:37;10.45;;;6.90;;
72413;SDS011;60995;52.154;4.498;2023-04-15T08:10:53;11.93;;;6.95;;
72413;SDS011;60995;52.154;4.498;2023-04-15T08:13:10;8.93;;;5.85;;
72413;SDS011;60995;52.154;4.498;2023-04-15T08:15:27;12.50;;;6.07;;
72413;SDS011;60995;52.154;4.498;2023-04-15T08:17:43;8.18;;;5.00;;
72413;SDS011;60995;52.154;4.498;2023-04-15T08:19:59;8.93;;;5.00;;
72413;SDS011;60995;52.154;4.498;2023-04-15T08:22:16;8.52;;;4.95;;
72413;SDS011;60995;52.154;4.498;2023-04-15T08:24:32;7.72;;;4.80;;
72413;SDS011;60995;52.154;4.498;2023-04-15T08:26:49;8.50;;;5.00;;
72413;SDS011;60995;52.154;4.498;2023-04-15T08:29:05;7.30;;;4.53;;
72413;SDS011;60995;52.154;4.498;2023-04-15T08:31:21;8.63;;;4.75;;
72413;SDS011;60995;52.154;4.498;2023-04-15T08:33:38;7.70;;;4.80;;
72413;SDS011;60995;52.154;4.498;2023-04-15T08:35:54;8.52;;;4.47;;
72413;SDS011;60995;52.154;4.498;2023-04-15T08:38:10;7.60;;;4.22;;
72413;SDS011;60995;52.154;4.498;2023-04-15T08:40:27;9.55;;;5.00;;
72413;SDS011;60995;52.154;4.498;2023-04-15T08:42:59;8.43;;;5.22;;
72413;SDS011;60995;52.154;4.498;2023-04-15T08:45:18;8.48;;;4.90;;
72413;SDS011;60995;52.154;4.498;2023-04-15T08:47:36;11.13;;;5.70;;
72413;SDS011;60995;52.154;4.498;2023-04-15T08:49:54;9.55;;;5.43;;
72413;SDS011;60995;52.154;4.498;2023-04-15T08:52:13;7.78;;;5.10;;
72413;SDS011;60995;52.154;4.498;2023-04-15T08:54:29;8.45;;;4.30;;
72413;SDS011;60995;52.154;4.498;2023-04-15T08:56:47;9.68;;;5.15;;
72413;SDS011;60995;52.154;4.498;2023-04-15T08:59:03;9.27;;;5.13;;
72413;SDS011;60995;52.154;4.498;2023-04-15T09:01:21;13.65;;;4.60;;
72413;SDS011;60995;52.154;4.498;2023-04-15T09:03:38;10.88;;;5.40;;
72413;SDS011;60995;52.154;4.498;2023-04-15T09:05:54;11.80;;;6.57;;
72413;SDS011;60995;52.154;4.498;2023-04-15T09:08:12;9.80;;;5.68;;
72413;SDS011;60995;52.154;4.498;2023-04-15T09:10:28;11.65;;;5.55;;
72413;SDS011;60995;52.154;4.498;2023-04-15T09:12:45;11.50;;;6.90;;
72413;SDS011;60995;52.154;4.498;2023-04-15T09:15:02;11.00;;;5.88;;
72413;SDS011;60995;52.154;4.498;2023-04-15T09:17:19;10.80;;;5.68;;
72413;SDS011;60995;52.154;4.498;2023-04-15T09:19:36;10.13;;;5.28;;
72413;SDS011;60995;52.154;4.498;2023-04-15T09:21:53;9.35;;;5.25;;
72413;SDS011;60995;52.154;4.498;2023-04-15T09:24:14;10.77;;;5.03;;
72413;SDS011;60995;52.154;4.498;2023-04-15T09:26:33;9.48;;;4.95;;
72413;SDS011;60995;52.154;4.498;2023-04-15T09:28:52;10.55;;;5.45;;
72413;SDS011;60995;52.154;4.498;2023-04-15T09:31:08;8.55;;;4.60;;
72413;SDS011;60995;52.154;4.498;2023-04-15T09:33:26;8.73;;;4.50;;
72413;SDS011;60995;52.154;4.498;2023-04-15T09:35:55;10.35;;;4.35;;
72413;SDS011;60995;52.154;4.498;2023-04-15T09:38:20;7.72;;;4.20;;
72413;SDS011;60995;52.154;4.498;2023-04-15T09:40:38;7.65;;;4.15;;
72413;SDS011;60995;52.154;4.498;2023-04-15T09:42:56;9.63;;;4.28;;
72413;SDS011;60995;52.154;4.498;2023-04-15T09:45:13;9.73;;;4.13;;
72413;SDS011;60995;52.154;4.498;2023-04-15T09:47:29;8.50;;;3.60;;
72413;SDS011;60995;52.154;4.498;2023-04-15T09:49:54;8.00;;;3.05;;
72413;SDS011;60995;52.154;4.498;2023-04-15T09:52:12;7.57;;;3.72;;
72413;SDS011;60995;52.154;4.498;2023-04-15T09:54:36;6.50;;;3.15;;
72413;SDS011;60995;52.154;4.498;2023-04-15T09:56:53;7.72;;;3.05;;
72413;SDS011;60995;52.154;4.498;2023-04-15T09:59:09;8.25;;;2.90;;
72413;SDS011;60995;52.154;4.498;2023-04-15T10:01:25;5.28;;;2.22;;
72413;SDS011;60995;52.154;4.498;2023-04-15T10:03:42;8.07;;;2.47;;
72413;SDS011;60995;52.154;4.498;2023-04-15T10:06:01;6.57;;;2.60;;
72413;SDS011;60995;52.154;4.498;2023-04-15T10:08:19;6.93;;;2.22;;
72413;SDS011;60995;52.154;4.498;2023-04-15T10:10:39;8.05;;;2.65;;
72413;SDS011;60995;52.154;4.498;2023-04-15T10:12:56;7.13;;;2.83;;
72413;SDS011;60995;52.154;4.498;2023-04-15T10:15:14;9.38;;;2.80;;
72413;SDS011;60995;52.154;4.498;2023-04-15T10:17:32;6.95;;;2.67;;
72413;SDS011;60995;52.154;4.498;2023-04-15T10:19:52;8.13;;;2.72;;
72413;SDS011;60995;52.154;4.498;2023-04-15T10:22:10;7.35;;;3.13;;
72413;SDS011;60995;52.154;4.498;2023-04-15T10:24:26;6.38;;;2.65;;
72413;SDS011;60995;52.154;4.498;2023-04-15T10:26:44;7.72;;;2.70;;
72413;SDS011;60995;52.154;4.498;2023-04-15T10:29:01;6.65;;;2.75;;
72413;SDS011;60995;52.154;4.498;2023-04-15T10:31:19;6.28;;;2.67;;
72413;SDS011;60995;52.154;4.498;2023-04-15T10:33:36;5.93;;;2.30;;
72413;SDS011;60995;52.154;4.498;2023-04-15T10:35:54;7.55;;;2.97;;
72413;SDS011;60995;52.154;4.498;2023-04-15T10:40:49;6.95;;;3.22;;
72413;SDS011;60995;52.154;4.498;2023-04-15T10:43:06;7.28;;;2.97;;
72413;SDS011;60995;52.154;4.498;2023-04-15T10:45:24;8.55;;;3.30;;
72413;SDS011;60995;52.154;4.498;2023-04-15T10:47:54;6.70;;;3.15;;
72413;SDS011;60995;52.154;4.498;2023-04-15T10:50:12;5.97;;;3.33;;
72413;SDS011;60995;52.154;4.498;2023-04-15T10:52:28;6.43;;;2.60;;
72413;SDS011;60995;52.154;4.498;2023-04-15T10:54:44;5.95;;;2.35;;
72413;SDS011;60995;52.154;4.498;2023-04-15T10:59:19;6.15;;;2.70;;
72413;SDS011;60995;52.154;4.498;2023-04-15T11:01:53;9.63;;;2.40;;
72413;SDS011;60995;52.154;4.498;2023-04-15T11:04:12;4.20;;;2.30;;
72413;SDS011;60995;52.154;4.498;2023-04-15T11:06:42;7.35;;;2.60;;
72413;SDS011;60995;52.154;4.498;2023-04-15T11:09:00;6.00;;;2.65;;
72413;SDS011;60995;52.154;4.498;2023-04-15T11:11:20;8.82;;;3.03;;
72413;SDS011;60995;52.154;4.498;2023-04-15T11:13:45;7.30;;;3.08;;
72413;SDS011;60995;52.154;4.498;2023-04-15T11:16:04;7.55;;;2.80;;
72413;SDS011;60995;52.154;4.498;2023-04-15T11:18:22;6.53;;;2.92;;
72413;SDS011;60995;52.154;4.498;2023-04-15T11:20:47;7.18;;;3.03;;
72413;SDS011;60995;52.154;4.498;2023-04-15T11:23:13;5.20;;;2.38;;
72413;SDS011;60995;52.154;4.498;2023-04-15T11:25:31;6.68;;;2.90;;
72413;SDS011;60995;52.154;4.498;2023-04-15T11:27:49;5.47;;;2.10;;
72413;SDS011;60995;52.154;4.498;2023-04-15T11:30:20;6.07;;;2.50;;
72413;SDS011;60995;52.154;4.498;2023-04-15T11:32:41;8.07;;;2.58;;
72413;SDS011;60995;52.154;4.498;2023-04-15T11:34:58;9.82;;;2.83;;
72413;SDS011;60995;52.154;4.498;2023-04-15T11:37:15;7.45;;;2.90;;
72413;SDS011;60995;52.154;4.498;2023-04-15T11:39:31;8.68;;;2.72;;
72413;SDS011;60995;52.154;4.498;2023-04-15T11:41:47;7.43;;;3.08;;
72413;SDS011;60995;52.154;4.498;2023-04-15T11:44:14;6.40;;;2.25;;
72413;SDS011;60995;52.154;4.498;2023-04-15T11:46:32;8.38;;;2.67;;
72413;SDS011;60995;52.154;4.498;2023-04-15T11:48:49;7.25;;;3.13;;
72413;SDS011;60995;52.154;4.498;2023-04-15T11:51:05;7.35;;;2.88;;
72413;SDS011;60995;52.154;4.498;2023-04-15T11:53:23;7.03;;;2.63;;
72413;SDS011;60995;52.154;4.498;2023-04-15T11:55:51;9.40;;;3.30;;
72413;SDS011;60995;52.154;4.498;2023-04-15T12:00:33;8.55;;;2.80;;
72413;SDS011;60995;52.154;4.498;2023-04-15T12:03:00;7.32;;;3.00;;
72413;SDS011;60995;52.154;4.498;2023-04-15T12:08:56;9.52;;;2.90;;
72413;SDS011;60995;52.154;4.498;2023-04-15T12:13:47;10.63;;;2.92;;
72413;SDS011;60995;52.154;4.498;2023-04-15T12:16:05;8.43;;;2.85;;
72413;SDS011;60995;52.154;4.498;2023-04-15T12:18:22;6.30;;;2.70;;
72413;SDS011;60995;52.154;4.498;2023-04-15T12:20:43;10.82;;;2.80;;
72413;SDS011;60995;52.154;4.498;2023-04-15T12:23:06;8.63;;;2.60;;
72413;SDS011;60995;52.154;4.498;2023-04-15T12:25:31;9.07;;;2.95;;
72413;SDS011;60995;52.154;4.498;2023-04-15T12:27:50;10.35;;;3.25;;
72413;SDS011;60995;52.154;4.498;2023-04-15T12:30:08;10.48;;;3.20;;
72413;SDS011;60995;52.154;4.498;2023-04-15T12:32:26;9.40;;;3.65;;
72413;SDS011;60995;52.154;4.498;2023-04-15T12:34:49;11.95;;;3.28;;
72413;SDS011;60995;52.154;4.498;2023-04-15T12:37:09;10.98;;;3.38;;
72413;SDS011;60995;52.154;4.498;2023-04-15T12:39:29;8.50;;;3.28;;
72413;SDS011;60995;52.154;4.498;2023-04-15T12:41:47;12.52;;;3.40;;
72413;SDS011;60995;52.154;4.498;2023-04-15T12:44:03;11.82;;;3.97;;
72413;SDS011;60995;52.154;4.498;2023-04-15T12:46:20;9.80;;;3.25;;
72413;SDS011;60995;52.154;4.498;2023-04-15T12:48:36;9.85;;;3.20;;
72413;SDS011;60995;52.154;4.498;2023-04-15T12:50:52;11.80;;;3.22;;
72413;SDS011;60995;52.154;4.498;2023-04-15T12:53:08;11.65;;;3.10;;
72413;SDS011;60995;52.154;4.498;2023-04-15T12:55:25;7.30;;;2.80;;
72413;SDS011;60995;52.154;4.498;2023-04-15T12:57:41;11.82;;;3.10;;
72413;SDS011;60995;52.154;4.498;2023-04-15T12:59:58;9.57;;;3.05;;
72413;SDS011;60995;52.154;4.498;2023-04-15T13:02:14;9.15;;;3.00;;
72413;SDS011;60995;52.154;4.498;2023-04-15T13:04:30;12.38;;;2.88;;
72413;SDS011;60995;52.154;4.498;2023-04-15T13:06:46;17.45;;;3.20;;
72413;SDS011;60995;52.154;4.498;2023-04-15T13:09:03;11.77;;;3.15;;
72413;SDS011;60995;52.154;4.498;2023-04-15T13:11:23;10.77;;;3.05;;
72413;SDS011;60995;52.154;4.498;2023-04-15T13:13:40;14.23;;;3.20;;
72413;SDS011;60995;52.154;4.498;2023-04-15T13:15:57;11.88;;;3.00;;
72413;SDS011;60995;52.154;4.498;2023-04-15T13:18:13;10.77;;;3.17;;
72413;SDS011;60995;52.154;4.498;2023-04-15T13:20:30;11.38;;;2.90;;
72413;SDS011;60995;52.154;4.498;2023-04-15T13:22:46;11.32;;;3.38;;
72413;SDS011;60995;52.154;4.498;2023-04-15T13:25:02;13.63;;;3.25;;
72413;SDS011;60995;52.154;4.498;2023-04-15T13:27:20;10.68;;;3.13;;
72413;SDS011;60995;52.154;4.498;2023-04-15T13:29:37;11.55;;;3.33;;
72413;SDS011;60995;52.154;4.498;2023-04-15T13:31:55;9.85;;;4.10;;
72413;SDS011;60995;52.154;4.498;2023-04-15T13:34:11;11.60;;;3.80;;
72413;SDS011;60995;52.154;4.498;2023-04-15T13:36:27;10.38;;;3.53;;
72413;SDS011;60995;52.154;4.498;2023-04-15T13:38:43;12.95;;;4.57;;
72413;SDS011;60995;52.154;4.498;2023-04-15T13:41:00;17.35;;;4.55;;
72413;SDS011;60995;52.154;4.498;2023-04-15T13:43:16;10.90;;;3.92;;
72413;SDS011;60995;52.154;4.498;2023-04-15T13:45:33;10.35;;;3.60;;
72413;SDS011;60995;52.154;4.498;2023-04-15T13:47:49;10.43;;;3.72;;
72413;SDS011;60995;52.154;4.498;2023-04-15T13:50:06;13.10;;;4.75;;
72413;SDS011;60995;52.154;4.498;2023-04-15T13:52:22;11.48;;;4.72;;